Nearby METAR Reports

 

EBAW - Antwerpen, Belgium
Distance from station: NW 22km
Updated: 2019-06-19 23:20
Light rain, Showers, Mostly cloudy
Light rain, Showers, Mostly cloudy
 Wind from SW
Wind: SW 9 km/h
Temperature: 17°C
Dew Point: 16°C
Humidity: 94%
Barometer: 1008 hPa
Summary: Light rain, Showers
Clouds: Mostly cloudy
Visibility: 10 km
Cloud details: Partly cloudy 884 m
Mostly cloudy 1036 m
2019/06/19 21:20 EBAW 192120Z AUTO 23005KT 9999 -SHRA SCT029/// BKN034/// 17/16 Q1008
EBBR - Brussel, Belgium
Distance from station: SW 24km
Updated: 2019-06-19 23:20
Mostly cloudy
Mostly cloudy
 Wind from SW
Wind: SW 11 km/h
Temperature: 17°C
Dew Point: 16°C
Humidity: 94%
Barometer: 1009 hPa
Clouds: Mostly cloudy
Visibility: 10 km
Cloud details: Partly cloudy 366 m
Mostly cloudy 488 m
2019/06/19 21:20 EBBR 192120Z 23006KT 9999 SCT012 BKN016 17/16 Q1009 NOSIG
 
EBDT - Schaffen, Belgium
Distance from station: ESE 26km
Updated: 2019-06-19 23:25
Overcast
Overcast
 Wind from SW
Wind: SW 7 km/h
Temperature: 17°C
Dew Point: 15°C
Humidity: 88%
Barometer: 1009 hPa
Clouds: Overcast
Visibility: 10 km
Cloud details: Few Clouds 3962 m
Mostly cloudy 4572 m
Overcast 6706 m
2019/06/19 21:25 EBDT 192125Z AUTO 22004KT 9999 FEW130/// BKN150/// OVC220/// 17/15 Q1009 BLU
EBBE - Beauvechain, Belgium
Distance from station: S 36km
Updated: 2019-06-19 23:25
Mostly cloudy
Mostly cloudy
 Wind from varies
Wind: varies 0 km/h
Temperature: 16°C
Dew Point: 15°C
Humidity: 94%
Barometer: 1009 hPa
Clouds: Mostly cloudy
Visibility: 10 km
Cloud details: Mostly cloudy 5486 m
2019/06/19 21:25 EBBE 192125Z AUTO //////KT 9999 BKN180/// 16/15 Q1009 BLU
 
EHWO - Woensdrecht Rnla, Netherlands
Distance from station: NNW 50km
Updated: 2019-06-19 23:25
Mist, Overcast
Mist, Overcast
 Wind from WSW
Wind: WSW 13 km/h
Temperature: 17°C
Dew Point: 16°C
Humidity: 94%
Barometer: 1008 hPa
Summary: Mist
Clouds: Overcast
Visibility: 7 km
Cloud details: Mostly cloudy 457 m
Overcast 3658 m
2019/06/19 21:25 EHWO 192125Z AUTO 24007KT 7000 BR BKN015 OVC120 17/16 Q1008 WHT
EBBL - Kleine-Brogel, Belgium
Distance from station: ENE 54km
Updated: 2019-06-19 23:25
Mostly cloudy
Mostly cloudy
 Wind from SW
Wind: SW 20 km/h
Temperature: 17°C
Dew Point: 16°C
Humidity: 94%
Barometer: 1009 hPa
Clouds: Mostly cloudy
Visibility: 10 km
Cloud details: Mostly cloudy 3962 m
Mostly cloudy 6401 m
2019/06/19 21:25 EBBL 192125Z AUTO 22011KT 9999 BKN130/// BKN210/// 17/16 Q1009 BLU
 
EHGR - Gilze-Rijen Rnla, Netherlands
Distance from station: NNE 57km
Updated: 2019-06-19 23:31
Light rain, Overcast
Light rain, Overcast
 Wind from WSW
Wind: WSW 9 km/h
Temperature: 17°C
Dew Point: 17°C
Humidity: 100%
Barometer: 1007 hPa
Summary: Light rain
Clouds: Overcast
Visibility: 5 km
Cloud details: Few Clouds 122 m
Few Clouds 457 m
Mostly cloudy 3048 m
Overcast 4724 m
2019/06/19 21:31 EHGR 192131Z AUTO 25005KT 200V270 5000 -RA FEW004 FEW015CB BKN100 OVC155 17/17 Q1007 WHT
EHEH - Eindhoven Rnlafb, Netherlands
Distance from station: NE 63km
Updated: 2019-06-19 23:30
Overcast
Overcast
 Wind from SSW
Wind: SSW 13 km/h
Temperature: 17°C
Dew Point: 16°C
Humidity: 94%
Barometer: 1008 hPa
Clouds: Overcast
Visibility: 10 km
Cloud details: Few Clouds 457 m
Overcast 4877 m
2019/06/19 21:30 EHEH 192130Z AUTO 21007KT 180V240 9999 FEW015CB OVC160 17/16 Q1008 BLU 18007KT CAVOK
 
EBCI - Charleroi, Belgium
Distance from station: SSW 70km
Updated: 2019-06-19 23:20
Few Clouds
Few Clouds
 Wind from SW
Wind: SW 15 km/h
Temperature: 15°C
Dew Point: 14°C
Humidity: 94%
Barometer: 1010 hPa
Clouds: Few Clouds
Visibility: 10 km
Cloud details: Few Clouds 914 m
2019/06/19 21:20 EBCI 192120Z 22008KT 9999 FEW030 15/14 Q1010 NOSIG
EBLG - Bierset, Belgium
Distance from station: SE 72km
Updated: 2019-06-19 23:20
Light rain, Showers, Partly cloudy
Light rain, Showers, Partly cloudy
 Wind from S
Wind: S 15 km/h
Temperature: 17°C
Dew Point: 16°C
Humidity: 94%
Barometer: 1009 hPa
Summary: Light rain, Showers
Clouds: Partly cloudy
Visibility: 10 km
Cloud details: Partly cloudy 1372 m
2019/06/19 21:20 EBLG 192120Z 17008KT 9999 -SHRA SCT045 17/16 Q1009 TEMPO 3000 TSRA